ロサンゼルス の空港の天気 - METARとTAF

ロサンゼルス国際空港 ( KLAX / LAX ) - アメリカ カリフォルニア州ロサンゼルス
飛行場実況気象(Metar)
観測時間12/09 07:53 PST (12/09 15:53 UTC)
風向・風速東 3m/s
視程10km以上
天気現象
少しの雲 雲底高度 460m
少しの雲 雲底高度 8530m
気温9.4℃
湿度71%
気圧1021.9hPa
METARKLAX 091553Z 09005KT 10SM FEW015 FEW280 09/04 A3018 RMK AO2 SLP219 T00940044 $
過去の天気等 Google飛行場航空写真 Wunderground天気予報

過去48時間のMETAR

飛行場予報(TAF)
発表時間: 12/09 07:06 PST (12/09 15:06 UTC)
予報対象時間: 9日7時 PST ~ 10日10時 PST
風向・風速北東 3m/s
視程10km以上
全天の4割程度の雲 雲底高度 610m
全天の4割程度の雲 雲底高度 6100m
9日12時 PST から
風向・風速西南西 4m/s
視程10km以上
全天の4割程度の雲 雲底高度 910m
全天の8割程度の雲 雲底高度 6100m
9日21時 PST から
風向・風速不定 2m/s
視程10km以上
全天の8割程度の雲 雲底高度 6100m
10日3時 PST から
風向・風速東南東 2m/s
視程10km以上
天気現象周辺でしゅう雨
全天の4割程度の雲 雲底高度 370m
全天の8割程度の雲 雲底高度 760m
10日6時 PST から
風向・風速東南東 3m/s
視程10km以上
天気現象弱いしゅう雨
全天の8割程度の雲 雲底高度 370m
全天を覆う雲 雲底高度 760m
KLAX 091506Z 0915/1018 05006KT P6SM SCT020 SCT200
FM092000 25008KT P6SM SCT030 BKN200
FM100500 VRB03KT P6SM BKN200
FM101100 12004KT P6SM VCSH SCT012 BKN025
FM101400 11005KT 6SM -SHRA BKN012 OVC025